sensor_id;sensor_type;location;lat;lon;timestamp;P1;durP1;ratioP1;P2;durP2;ratioP2
57663;SDS011;43493;53.098;6.064;2022-12-20T00:01:16;11.37;;;5.67;;
57663;SDS011;43493;53.098;6.064;2022-12-20T00:03:47;11.50;;;4.93;;
57663;SDS011;43493;53.098;6.064;2022-12-20T00:06:15;9.27;;;5.50;;
57663;SDS011;43493;53.098;6.064;2022-12-20T00:08:40;8.27;;;5.23;;
57663;SDS011;43493;53.098;6.064;2022-12-20T00:11:07;8.27;;;4.70;;
57663;SDS011;43493;53.098;6.064;2022-12-20T00:13:33;9.17;;;5.00;;
57663;SDS011;43493;53.098;6.064;2022-12-20T00:18:33;11.70;;;5.03;;
57663;SDS011;43493;53.098;6.064;2022-12-20T00:20:59;10.73;;;5.07;;
57663;SDS011;43493;53.098;6.064;2022-12-20T00:23:26;8.13;;;4.63;;
57663;SDS011;43493;53.098;6.064;2022-12-20T00:25:58;8.73;;;4.37;;
57663;SDS011;43493;53.098;6.064;2022-12-20T00:28:34;13.10;;;5.73;;
57663;SDS011;43493;53.098;6.064;2022-12-20T00:31:01;8.53;;;4.80;;
57663;SDS011;43493;53.098;6.064;2022-12-20T00:33:28;8.23;;;4.50;;
57663;SDS011;43493;53.098;6.064;2022-12-20T00:35:54;9.10;;;5.00;;
57663;SDS011;43493;53.098;6.064;2022-12-20T00:38:21;6.93;;;4.30;;
57663;SDS011;43493;53.098;6.064;2022-12-20T00:40:57;8.60;;;4.73;;
57663;SDS011;43493;53.098;6.064;2022-12-20T00:43:28;7.70;;;4.50;;
57663;SDS011;43493;53.098;6.064;2022-12-20T00:45:54;8.47;;;4.60;;
57663;SDS011;43493;53.098;6.064;2022-12-20T00:48:20;8.03;;;4.33;;
57663;SDS011;43493;53.098;6.064;2022-12-20T00:50:45;9.03;;;4.10;;
57663;SDS011;43493;53.098;6.064;2022-12-20T00:53:11;7.27;;;4.20;;
57663;SDS011;43493;53.098;6.064;2022-12-20T00:55:40;9.27;;;4.20;;
57663;SDS011;43493;53.098;6.064;2022-12-20T00:58:07;8.47;;;4.00;;
57663;SDS011;43493;53.098;6.064;2022-12-20T01:00:33;7.17;;;4.17;;
57663;SDS011;43493;53.098;6.064;2022-12-20T01:02:58;9.63;;;3.83;;
57663;SDS011;43493;53.098;6.064;2022-12-20T01:05:24;7.50;;;4.33;;
57663;SDS011;43493;53.098;6.064;2022-12-20T01:07:50;8.23;;;4.57;;
57663;SDS011;43493;53.098;6.064;2022-12-20T01:10:15;7.93;;;4.30;;
57663;SDS011;43493;53.098;6.064;2022-12-20T01:12:42;9.97;;;4.90;;
57663;SDS011;43493;53.098;6.064;2022-12-20T01:15:08;10.67;;;4.30;;
57663;SDS011;43493;53.098;6.064;2022-12-20T01:17:34;6.67;;;4.07;;
57663;SDS011;43493;53.098;6.064;2022-12-20T01:20:00;9.60;;;4.00;;
57663;SDS011;43493;53.098;6.064;2022-12-20T01:22:26;6.83;;;3.53;;
57663;SDS011;43493;53.098;6.064;2022-12-20T01:24:52;7.07;;;3.97;;
57663;SDS011;43493;53.098;6.064;2022-12-20T01:27:17;9.07;;;4.37;;
57663;SDS011;43493;53.098;6.064;2022-12-20T01:29:43;6.17;;;4.10;;
57663;SDS011;43493;53.098;6.064;2022-12-20T01:32:09;8.73;;;4.03;;
57663;SDS011;43493;53.098;6.064;2022-12-20T01:34:35;10.00;;;4.20;;
57663;SDS011;43493;53.098;6.064;2022-12-20T01:37:00;6.87;;;3.63;;
57663;SDS011;43493;53.098;6.064;2022-12-20T01:39:26;12.33;;;4.10;;
57663;SDS011;43493;53.098;6.064;2022-12-20T01:41:52;7.43;;;4.13;;
57663;SDS011;43493;53.098;6.064;2022-12-20T01:46:43;7.83;;;4.13;;
57663;SDS011;43493;53.098;6.064;2022-12-20T01:49:12;9.13;;;4.43;;
57663;SDS011;43493;53.098;6.064;2022-12-20T01:51:52;8.60;;;4.30;;
57663;SDS011;43493;53.098;6.064;2022-12-20T01:54:25;9.50;;;4.60;;
57663;SDS011;43493;53.098;6.064;2022-12-20T01:57:01;8.30;;;3.90;;
57663;SDS011;43493;53.098;6.064;2022-12-20T01:59:30;8.90;;;4.20;;
57663;SDS011;43493;53.098;6.064;2022-12-20T02:02:00;6.97;;;3.63;;
57663;SDS011;43493;53.098;6.064;2022-12-20T02:04:28;6.50;;;3.57;;
57663;SDS011;43493;53.098;6.064;2022-12-20T02:06:55;9.50;;;3.93;;
57663;SDS011;43493;53.098;6.064;2022-12-20T02:09:22;9.17;;;3.80;;
57663;SDS011;43493;53.098;6.064;2022-12-20T02:11:53;9.73;;;4.00;;
57663;SDS011;43493;53.098;6.064;2022-12-20T02:14:30;9.30;;;3.70;;
57663;SDS011;43493;53.098;6.064;2022-12-20T02:17:07;10.13;;;3.63;;
57663;SDS011;43493;53.098;6.064;2022-12-20T02:25:22;10.68;;;4.18;;
57663;SDS011;43493;53.098;6.064;2022-12-20T02:28:30;12.23;;;4.13;;
57663;SDS011;43493;53.098;6.064;2022-12-20T02:30:48;6.37;;;3.70;;
57663;SDS011;43493;53.098;6.064;2022-12-20T02:33:16;8.80;;;3.77;;
57663;SDS011;43493;53.098;6.064;2022-12-20T02:35:43;9.60;;;4.33;;
57663;SDS011;43493;53.098;6.064;2022-12-20T02:38:28;9.33;;;3.80;;
57663;SDS011;43493;53.098;6.064;2022-12-20T02:41:01;8.43;;;3.90;;
57663;SDS011;43493;53.098;6.064;2022-12-20T02:43:48;6.80;;;4.07;;
57663;SDS011;43493;53.098;6.064;2022-12-20T02:46:38;10.63;;;4.23;;
57663;SDS011;43493;53.098;6.064;2022-12-20T02:49:06;8.70;;;4.53;;
57663;SDS011;43493;53.098;6.064;2022-12-20T02:51:39;8.80;;;4.78;;
57663;SDS011;43493;53.098;6.064;2022-12-20T02:54:07;10.50;;;4.77;;
57663;SDS011;43493;53.098;6.064;2022-12-20T02:56:37;8.67;;;4.83;;
57663;SDS011;43493;53.098;6.064;2022-12-20T02:59:12;7.60;;;4.37;;
57663;SDS011;43493;53.098;6.064;2022-12-20T03:01:49;8.40;;;4.43;;
57663;SDS011;43493;53.098;6.064;2022-12-20T03:04:17;9.38;;;4.78;;
57663;SDS011;43493;53.098;6.064;2022-12-20T03:07:01;9.67;;;4.33;;
57663;SDS011;43493;53.098;6.064;2022-12-20T03:09:36;11.03;;;4.87;;
57663;SDS011;43493;53.098;6.064;2022-12-20T03:12:04;6.60;;;4.43;;
57663;SDS011;43493;53.098;6.064;2022-12-20T03:14:30;11.13;;;5.30;;
57663;SDS011;43493;53.098;6.064;2022-12-20T03:16:56;8.13;;;4.40;;
57663;SDS011;43493;53.098;6.064;2022-12-20T03:19:22;9.10;;;4.60;;
57663;SDS011;43493;53.098;6.064;2022-12-20T03:21:48;10.57;;;4.50;;
57663;SDS011;43493;53.098;6.064;2022-12-20T03:24:14;10.57;;;5.33;;
57663;SDS011;43493;53.098;6.064;2022-12-20T03:26:40;10.13;;;4.80;;
57663;SDS011;43493;53.098;6.064;2022-12-20T03:29:07;8.77;;;4.77;;
57663;SDS011;43493;53.098;6.064;2022-12-20T03:31:34;11.87;;;5.07;;
57663;SDS011;43493;53.098;6.064;2022-12-20T03:33:59;7.27;;;4.23;;
57663;SDS011;43493;53.098;6.064;2022-12-20T03:36:26;9.03;;;4.90;;
57663;SDS011;43493;53.098;6.064;2022-12-20T03:38:52;11.50;;;4.73;;
57663;SDS011;43493;53.098;6.064;2022-12-20T03:41:20;8.63;;;4.87;;
57663;SDS011;43493;53.098;6.064;2022-12-20T03:43:47;11.23;;;4.80;;
57663;SDS011;43493;53.098;6.064;2022-12-20T03:46:13;9.67;;;4.80;;
57663;SDS011;43493;53.098;6.064;2022-12-20T03:48:39;9.87;;;5.03;;
57663;SDS011;43493;53.098;6.064;2022-12-20T03:51:05;10.03;;;4.67;;
57663;SDS011;43493;53.098;6.064;2022-12-20T03:53:31;8.03;;;4.57;;
57663;SDS011;43493;53.098;6.064;2022-12-20T03:55:57;8.07;;;4.43;;
57663;SDS011;43493;53.098;6.064;2022-12-20T03:58:23;8.80;;;5.40;;
57663;SDS011;43493;53.098;6.064;2022-12-20T04:00:48;7.60;;;4.40;;
57663;SDS011;43493;53.098;6.064;2022-12-20T04:03:14;10.10;;;5.03;;
57663;SDS011;43493;53.098;6.064;2022-12-20T04:05:40;6.90;;;4.60;;
57663;SDS011;43493;53.098;6.064;2022-12-20T04:08:06;9.47;;;4.90;;
57663;SDS011;43493;53.098;6.064;2022-12-20T04:10:32;9.57;;;4.50;;
57663;SDS011;43493;53.098;6.064;2022-12-20T04:13:18;9.20;;;5.20;;
57663;SDS011;43493;53.098;6.064;2022-12-20T04:15:43;7.17;;;5.13;;
57663;SDS011;43493;53.098;6.064;2022-12-20T04:18:09;7.47;;;4.87;;
57663;SDS011;43493;53.098;6.064;2022-12-20T04:20:35;10.60;;;5.33;;
57663;SDS011;43493;53.098;6.064;2022-12-20T04:23:00;10.83;;;5.73;;
57663;SDS011;43493;53.098;6.064;2022-12-20T04:25:26;11.17;;;4.93;;
57663;SDS011;43493;53.098;6.064;2022-12-20T04:27:52;9.27;;;5.20;;
57663;SDS011;43493;53.098;6.064;2022-12-20T04:30:17;8.57;;;5.07;;
57663;SDS011;43493;53.098;6.064;2022-12-20T04:32:43;7.20;;;5.13;;
57663;SDS011;43493;53.098;6.064;2022-12-20T04:35:09;9.53;;;5.60;;
57663;SDS011;43493;53.098;6.064;2022-12-20T04:37:35;9.60;;;5.50;;
57663;SDS011;43493;53.098;6.064;2022-12-20T04:40:00;9.20;;;5.20;;
57663;SDS011;43493;53.098;6.064;2022-12-20T04:42:26;7.93;;;4.83;;
57663;SDS011;43493;53.098;6.064;2022-12-20T04:44:52;7.83;;;5.13;;
57663;SDS011;43493;53.098;6.064;2022-12-20T04:47:17;11.47;;;5.67;;
57663;SDS011;43493;53.098;6.064;2022-12-20T04:49:43;8.70;;;5.43;;
57663;SDS011;43493;53.098;6.064;2022-12-20T04:52:09;10.20;;;5.93;;
57663;SDS011;43493;53.098;6.064;2022-12-20T04:54:53;8.73;;;5.27;;
57663;SDS011;43493;53.098;6.064;2022-12-20T04:57:19;8.90;;;4.80;;
57663;SDS011;43493;53.098;6.064;2022-12-20T04:59:45;10.03;;;4.90;;
57663;SDS011;43493;53.098;6.064;2022-12-20T05:02:10;9.83;;;5.83;;
57663;SDS011;43493;53.098;6.064;2022-12-20T05:04:36;10.07;;;5.10;;
57663;SDS011;43493;53.098;6.064;2022-12-20T05:07:02;7.17;;;4.87;;
57663;SDS011;43493;53.098;6.064;2022-12-20T05:09:27;9.33;;;4.50;;
57663;SDS011;43493;53.098;6.064;2022-12-20T05:11:53;9.23;;;5.13;;
57663;SDS011;43493;53.098;6.064;2022-12-20T05:14:19;11.93;;;6.03;;
57663;SDS011;43493;53.098;6.064;2022-12-20T05:16:44;9.53;;;5.07;;
57663;SDS011;43493;53.098;6.064;2022-12-20T05:19:10;8.67;;;4.60;;
57663;SDS011;43493;53.098;6.064;2022-12-20T05:21:36;10.97;;;5.80;;
57663;SDS011;43493;53.098;6.064;2022-12-20T05:24:20;8.00;;;4.57;;
57663;SDS011;43493;53.098;6.064;2022-12-20T05:27:04;9.40;;;4.40;;
57663;SDS011;43493;53.098;6.064;2022-12-20T05:29:30;10.23;;;4.50;;
57663;SDS011;43493;53.098;6.064;2022-12-20T05:31:56;9.30;;;5.50;;
57663;SDS011;43493;53.098;6.064;2022-12-20T05:34:22;10.67;;;4.93;;
57663;SDS011;43493;53.098;6.064;2022-12-20T05:36:47;10.27;;;5.03;;
57663;SDS011;43493;53.098;6.064;2022-12-20T05:39:13;8.87;;;4.60;;
57663;SDS011;43493;53.098;6.064;2022-12-20T05:41:39;9.10;;;4.17;;
57663;SDS011;43493;53.098;6.064;2022-12-20T05:44:05;12.27;;;5.03;;
57663;SDS011;43493;53.098;6.064;2022-12-20T05:46:31;13.57;;;4.17;;
57663;SDS011;43493;53.098;6.064;2022-12-20T05:48:57;10.30;;;4.43;;
57663;SDS011;43493;53.098;6.064;2022-12-20T05:51:23;8.87;;;3.97;;
57663;SDS011;43493;53.098;6.064;2022-12-20T05:53:49;8.33;;;4.50;;
57663;SDS011;43493;53.098;6.064;2022-12-20T05:56:15;10.47;;;4.73;;
57663;SDS011;43493;53.098;6.064;2022-12-20T05:58:40;7.00;;;4.43;;
57663;SDS011;43493;53.098;6.064;2022-12-20T06:01:06;6.80;;;4.50;;
57663;SDS011;43493;53.098;6.064;2022-12-20T06:03:33;9.40;;;4.27;;
57663;SDS011;43493;53.098;6.064;2022-12-20T06:05:58;9.47;;;4.30;;
57663;SDS011;43493;53.098;6.064;2022-12-20T06:08:25;11.50;;;4.90;;
57663;SDS011;43493;53.098;6.064;2022-12-20T06:10:51;8.10;;;4.10;;
57663;SDS011;43493;53.098;6.064;2022-12-20T06:13:17;7.73;;;4.37;;
57663;SDS011;43493;53.098;6.064;2022-12-20T06:15:42;6.23;;;3.90;;
57663;SDS011;43493;53.098;6.064;2022-12-20T06:18:08;8.53;;;5.07;;
57663;SDS011;43493;53.098;6.064;2022-12-20T06:20:35;9.40;;;4.13;;
57663;SDS011;43493;53.098;6.064;2022-12-20T06:23:01;6.77;;;4.20;;
57663;SDS011;43493;53.098;6.064;2022-12-20T06:25:28;7.60;;;4.40;;
57663;SDS011;43493;53.098;6.064;2022-12-20T06:27:54;9.57;;;4.63;;
57663;SDS011;43493;53.098;6.064;2022-12-20T06:30:20;7.50;;;3.80;;
57663;SDS011;43493;53.098;6.064;2022-12-20T06:32:46;9.00;;;4.30;;
57663;SDS011;43493;53.098;6.064;2022-12-20T06:35:12;8.97;;;4.40;;
57663;SDS011;43493;53.098;6.064;2022-12-20T06:37:38;8.27;;;4.53;;
57663;SDS011;43493;53.098;6.064;2022-12-20T06:40:05;9.07;;;4.60;;
57663;SDS011;43493;53.098;6.064;2022-12-20T06:42:32;10.23;;;4.93;;
57663;SDS011;43493;53.098;6.064;2022-12-20T06:44:58;8.77;;;5.07;;
57663;SDS011;43493;53.098;6.064;2022-12-20T06:47:24;8.40;;;4.90;;
57663;SDS011;43493;53.098;6.064;2022-12-20T06:49:49;8.83;;;5.63;;
57663;SDS011;43493;53.098;6.064;2022-12-20T06:52:15;7.43;;;5.37;;
57663;SDS011;43493;53.098;6.064;2022-12-20T06:54:41;9.03;;;5.30;;
57663;SDS011;43493;53.098;6.064;2022-12-20T06:57:06;7.47;;;5.57;;
57663;SDS011;43493;53.098;6.064;2022-12-20T06:59:32;8.87;;;5.90;;
57663;SDS011;43493;53.098;6.064;2022-12-20T07:01:59;10.47;;;5.80;;
57663;SDS011;43493;53.098;6.064;2022-12-20T07:04:25;9.93;;;6.40;;
57663;SDS011;43493;53.098;6.064;2022-12-20T07:06:50;9.83;;;5.90;;
57663;SDS011;43493;53.098;6.064;2022-12-20T07:09:16;9.37;;;6.13;;
57663;SDS011;43493;53.098;6.064;2022-12-20T07:11:42;9.93;;;6.00;;
57663;SDS011;43493;53.098;6.064;2022-12-20T07:14:08;9.27;;;6.20;;
57663;SDS011;43493;53.098;6.064;2022-12-20T07:16:34;10.20;;;6.10;;
57663;SDS011;43493;53.098;6.064;2022-12-20T07:19:00;9.83;;;5.93;;
57663;SDS011;43493;53.098;6.064;2022-12-20T07:21:26;9.63;;;6.57;;
57663;SDS011;43493;53.098;6.064;2022-12-20T07:23:53;10.50;;;5.97;;
57663;SDS011;43493;53.098;6.064;2022-12-20T07:26:20;10.33;;;6.27;;
57663;SDS011;43493;53.098;6.064;2022-12-20T07:28:45;8.73;;;6.00;;
57663;SDS011;43493;53.098;6.064;2022-12-20T07:31:11;8.47;;;6.20;;
57663;SDS011;43493;53.098;6.064;2022-12-20T07:33:37;10.40;;;5.80;;
57663;SDS011;43493;53.098;6.064;2022-12-20T07:36:04;10.60;;;6.67;;
57663;SDS011;43493;53.098;6.064;2022-12-20T07:38:32;8.63;;;6.00;;
57663;SDS011;43493;53.098;6.064;2022-12-20T07:40:59;11.50;;;6.07;;
57663;SDS011;43493;53.098;6.064;2022-12-20T07:43:26;11.17;;;6.10;;
57663;SDS011;43493;53.098;6.064;2022-12-20T07:45:55;10.23;;;6.17;;
57663;SDS011;43493;53.098;6.064;2022-12-20T07:48:21;8.57;;;5.67;;
57663;SDS011;43493;53.098;6.064;2022-12-20T07:50:48;12.83;;;6.67;;
57663;SDS011;43493;53.098;6.064;2022-12-20T07:53:19;10.80;;;5.80;;
57663;SDS011;43493;53.098;6.064;2022-12-20T07:55:46;8.73;;;5.97;;
57663;SDS011;43493;53.098;6.064;2022-12-20T07:58:12;9.37;;;5.70;;
57663;SDS011;43493;53.098;6.064;2022-12-20T08:00:41;10.30;;;5.73;;
57663;SDS011;43493;53.098;6.064;2022-12-20T08:03:09;10.80;;;5.50;;
57663;SDS011;43493;53.098;6.064;2022-12-20T08:05:40;10.57;;;6.13;;
57663;SDS011;43493;53.098;6.064;2022-12-20T08:08:10;10.27;;;6.10;;
57663;SDS011;43493;53.098;6.064;2022-12-20T08:10:36;8.63;;;5.40;;
57663;SDS011;43493;53.098;6.064;2022-12-20T08:13:02;9.53;;;5.87;;
57663;SDS011;43493;53.098;6.064;2022-12-20T08:15:30;12.03;;;6.33;;
57663;SDS011;43493;53.098;6.064;2022-12-20T08:17:56;9.37;;;5.07;;
57663;SDS011;43493;53.098;6.064;2022-12-20T08:20:22;7.67;;;5.27;;
57663;SDS011;43493;53.098;6.064;2022-12-20T08:22:47;9.80;;;5.03;;
57663;SDS011;43493;53.098;6.064;2022-12-20T08:25:13;8.07;;;4.50;;
57663;SDS011;43493;53.098;6.064;2022-12-20T08:27:39;9.87;;;5.17;;
57663;SDS011;43493;53.098;6.064;2022-12-20T08:30:05;9.17;;;5.17;;
57663;SDS011;43493;53.098;6.064;2022-12-20T08:32:32;9.87;;;4.43;;
57663;SDS011;43493;53.098;6.064;2022-12-20T08:34:58;9.47;;;5.33;;
57663;SDS011;43493;53.098;6.064;2022-12-20T08:37:24;7.83;;;4.70;;
57663;SDS011;43493;53.098;6.064;2022-12-20T08:39:49;7.77;;;4.67;;
57663;SDS011;43493;53.098;6.064;2022-12-20T08:42:15;6.97;;;4.53;;
57663;SDS011;43493;53.098;6.064;2022-12-20T08:44:41;6.47;;;3.97;;
57663;SDS011;43493;53.098;6.064;2022-12-20T08:47:08;9.13;;;4.53;;
57663;SDS011;43493;53.098;6.064;2022-12-20T08:49:34;9.47;;;3.93;;
57663;SDS011;43493;53.098;6.064;2022-12-20T08:52:00;8.23;;;4.50;;
57663;SDS011;43493;53.098;6.064;2022-12-20T08:54:26;7.03;;;3.97;;
57663;SDS011;43493;53.098;6.064;2022-12-20T08:56:52;8.27;;;4.50;;
57663;SDS011;43493;53.098;6.064;2022-12-20T08:59:17;8.77;;;3.83;;
57663;SDS011;43493;53.098;6.064;2022-12-20T09:01:43;9.07;;;3.90;;
57663;SDS011;43493;53.098;6.064;2022-12-20T09:04:09;6.87;;;3.63;;
57663;SDS011;43493;53.098;6.064;2022-12-20T09:06:35;7.57;;;3.63;;
57663;SDS011;43493;53.098;6.064;2022-12-20T09:09:02;6.73;;;3.50;;
57663;SDS011;43493;53.098;6.064;2022-12-20T09:11:28;6.73;;;3.87;;
57663;SDS011;43493;53.098;6.064;2022-12-20T09:13:55;9.33;;;3.90;;
57663;SDS011;43493;53.098;6.064;2022-12-20T09:16:24;9.27;;;4.00;;
57663;SDS011;43493;53.098;6.064;2022-12-20T09:18:52;7.03;;;3.60;;
57663;SDS011;43493;53.098;6.064;2022-12-20T09:21:22;7.63;;;3.43;;
57663;SDS011;43493;53.098;6.064;2022-12-20T09:23:49;9.00;;;3.10;;
57663;SDS011;43493;53.098;6.064;2022-12-20T09:26:16;6.73;;;3.20;;
57663;SDS011;43493;53.098;6.064;2022-12-20T09:28:43;7.43;;;3.23;;
57663;SDS011;43493;53.098;6.064;2022-12-20T09:31:10;7.47;;;3.43;;
57663;SDS011;43493;53.098;6.064;2022-12-20T09:33:37;8.67;;;3.73;;
57663;SDS011;43493;53.098;6.064;2022-12-20T09:36:04;6.97;;;3.20;;
57663;SDS011;43493;53.098;6.064;2022-12-20T09:38:30;5.50;;;3.53;;
57663;SDS011;43493;53.098;6.064;2022-12-20T09:41:00;7.63;;;3.20;;
57663;SDS011;43493;53.098;6.064;2022-12-20T09:43:28;5.80;;;3.40;;
57663;SDS011;43493;53.098;6.064;2022-12-20T09:45:56;5.77;;;3.00;;
57663;SDS011;43493;53.098;6.064;2022-12-20T09:48:25;7.77;;;3.60;;
57663;SDS011;43493;53.098;6.064;2022-12-20T09:56:20;7.43;;;3.67;;
57663;SDS011;43493;53.098;6.064;2022-12-20T09:58:57;7.83;;;3.70;;
57663;SDS011;43493;53.098;6.064;2022-12-20T10:01:27;6.43;;;3.47;;
57663;SDS011;43493;53.098;6.064;2022-12-20T10:03:55;8.53;;;3.87;;
57663;SDS011;43493;53.098;6.064;2022-12-20T10:25:39;7.80;;;3.37;;
57663;SDS011;43493;53.098;6.064;2022-12-20T10:28:11;7.07;;;3.20;;
57663;SDS011;43493;53.098;6.064;2022-12-20T10:30:40;8.37;;;3.37;;
57663;SDS011;43493;53.098;6.064;2022-12-20T10:33:07;5.73;;;2.90;;
57663;SDS011;43493;53.098;6.064;2022-12-20T10:35:43;6.70;;;3.33;;
57663;SDS011;43493;53.098;6.064;2022-12-20T10:38:10;6.87;;;3.13;;
57663;SDS011;43493;53.098;6.064;2022-12-20T10:43:12;7.63;;;3.00;;
57663;SDS011;43493;53.098;6.064;2022-12-20T10:45:41;6.47;;;3.07;;
57663;SDS011;43493;53.098;6.064;2022-12-20T10:56:19;7.80;;;3.57;;
57663;SDS011;43493;53.098;6.064;2022-12-20T10:58:54;7.57;;;3.57;;
57663;SDS011;43493;53.098;6.064;2022-12-20T11:01:29;8.65;;;3.70;;
57663;SDS011;43493;53.098;6.064;2022-12-20T11:06:24;8.63;;;4.03;;
57663;SDS011;43493;53.098;6.064;2022-12-20T11:08:53;7.27;;;3.40;;
57663;SDS011;43493;53.098;6.064;2022-12-20T11:11:36;5.90;;;3.37;;
57663;SDS011;43493;53.098;6.064;2022-12-20T11:14:12;7.67;;;3.97;;
57663;SDS011;43493;53.098;6.064;2022-12-20T11:16:39;8.83;;;3.53;;
57663;SDS011;43493;53.098;6.064;2022-12-20T11:19:27;6.70;;;3.30;;
57663;SDS011;43493;53.098;6.064;2022-12-20T11:21:59;8.50;;;3.53;;
57663;SDS011;43493;53.098;6.064;2022-12-20T11:27:06;7.55;;;3.95;;
57663;SDS011;43493;53.098;6.064;2022-12-20T11:30:07;9.90;;;3.90;;
57663;SDS011;43493;53.098;6.064;2022-12-20T11:35:22;8.83;;;4.10;;
57663;SDS011;43493;53.098;6.064;2022-12-20T11:40:43;10.57;;;4.47;;
57663;SDS011;43493;53.098;6.064;2022-12-20T11:46:23;11.10;;;4.63;;
57663;SDS011;43493;53.098;6.064;2022-12-20T11:49:06;8.33;;;4.20;;
57663;SDS011;43493;53.098;6.064;2022-12-20T11:54:35;11.60;;;4.60;;
57663;SDS011;43493;53.098;6.064;2022-12-20T12:00:13;10.13;;;5.07;;
57663;SDS011;43493;53.098;6.064;2022-12-20T12:05:06;9.33;;;5.07;;
57663;SDS011;43493;53.098;6.064;2022-12-20T12:07:46;8.50;;;5.93;;
57663;SDS011;43493;53.098;6.064;2022-12-20T12:10:23;9.70;;;5.47;;
57663;SDS011;43493;53.098;6.064;2022-12-20T12:13:15;7.77;;;5.47;;
57663;SDS011;43493;53.098;6.064;2022-12-20T12:18:29;10.83;;;6.77;;
57663;SDS011;43493;53.098;6.064;2022-12-20T12:26:24;9.77;;;6.75;;
57663;SDS011;43493;53.098;6.064;2022-12-20T12:28:58;9.50;;;6.13;;
57663;SDS011;43493;53.098;6.064;2022-12-20T12:31:31;11.67;;;7.03;;
57663;SDS011;43493;53.098;6.064;2022-12-20T12:34:30;11.37;;;6.37;;
57663;SDS011;43493;53.098;6.064;2022-12-20T12:39:41;10.37;;;6.67;;
57663;SDS011;43493;53.098;6.064;2022-12-20T12:50:29;11.97;;;7.07;;
57663;SDS011;43493;53.098;6.064;2022-12-20T12:53:03;14.60;;;8.13;;
57663;SDS011;43493;53.098;6.064;2022-12-20T13:00:55;10.80;;;7.30;;
57663;SDS011;43493;53.098;6.064;2022-12-20T13:16:45;12.60;;;7.93;;
57663;SDS011;43493;53.098;6.064;2022-12-20T13:19:13;9.87;;;8.67;;
57663;SDS011;43493;53.098;6.064;2022-12-20T13:21:45;10.57;;;8.47;;
57663;SDS011;43493;53.098;6.064;2022-12-20T13:43:11;13.77;;;9.80;;
57663;SDS011;43493;53.098;6.064;2022-12-20T13:45:41;16.30;;;10.27;;
57663;SDS011;43493;53.098;6.064;2022-12-20T13:48:11;12.67;;;9.40;;
57663;SDS011;43493;53.098;6.064;2022-12-20T13:50:48;13.13;;;9.50;;
57663;SDS011;43493;53.098;6.064;2022-12-20T13:53:18;11.00;;;9.13;;
57663;SDS011;43493;53.098;6.064;2022-12-20T13:55:45;13.60;;;9.17;;
57663;SDS011;43493;53.098;6.064;2022-12-20T13:58:12;13.03;;;9.17;;
57663;SDS011;43493;53.098;6.064;2022-12-20T14:00:41;13.33;;;9.37;;
57663;SDS011;43493;53.098;6.064;2022-12-20T14:03:17;15.80;;;10.17;;
57663;SDS011;43493;53.098;6.064;2022-12-20T14:05:49;16.27;;;10.00;;
57663;SDS011;43493;53.098;6.064;2022-12-20T14:08:21;19.40;;;10.77;;
57663;SDS011;43493;53.098;6.064;2022-12-20T14:10:51;16.50;;;10.43;;
57663;SDS011;43493;53.098;6.064;2022-12-20T14:15:47;17.93;;;12.17;;
57663;SDS011;43493;53.098;6.064;2022-12-20T14:18:15;16.90;;;11.10;;
57663;SDS011;43493;53.098;6.064;2022-12-20T14:20:50;15.57;;;11.27;;
57663;SDS011;43493;53.098;6.064;2022-12-20T14:23:20;14.93;;;11.07;;
57663;SDS011;43493;53.098;6.064;2022-12-20T14:28:32;17.33;;;12.80;;
57663;SDS011;43493;53.098;6.064;2022-12-20T14:34:05;18.17;;;13.20;;
57663;SDS011;43493;53.098;6.064;2022-12-20T14:36:34;18.03;;;13.47;;
57663;SDS011;43493;53.098;6.064;2022-12-20T14:41:54;22.83;;;15.80;;
57663;SDS011;43493;53.098;6.064;2022-12-20T14:44:22;17.37;;;14.07;;
57663;SDS011;43493;53.098;6.064;2022-12-20T14:46:52;21.43;;;15.70;;
57663;SDS011;43493;53.098;6.064;2022-12-20T14:49:26;18.00;;;16.13;;
57663;SDS011;43493;53.098;6.064;2022-12-20T14:57:24;21.27;;;17.20;;
57663;SDS011;43493;53.098;6.064;2022-12-20T15:00:09;18.63;;;16.27;;
57663;SDS011;43493;53.098;6.064;2022-12-20T15:08:11;20.87;;;15.90;;
57663;SDS011;43493;53.098;6.064;2022-12-20T15:10:51;18.30;;;15.97;;
57663;SDS011;43493;53.098;6.064;2022-12-20T15:13:25;21.27;;;18.53;;
57663;SDS011;43493;53.098;6.064;2022-12-20T15:15:54;20.57;;;18.37;;
57663;SDS011;43493;53.098;6.064;2022-12-20T15:18:20;20.00;;;17.83;;
57663;SDS011;43493;53.098;6.064;2022-12-20T15:20:48;20.67;;;18.47;;
57663;SDS011;43493;53.098;6.064;2022-12-20T15:23:47;25.27;;;19.70;;
57663;SDS011;43493;53.098;6.064;2022-12-20T15:26:18;21.60;;;19.07;;
57663;SDS011;43493;53.098;6.064;2022-12-20T15:28:45;24.83;;;20.23;;
57663;SDS011;43493;53.098;6.064;2022-12-20T15:31:12;24.30;;;21.70;;
57663;SDS011;43493;53.098;6.064;2022-12-20T15:33:40;25.53;;;20.73;;
57663;SDS011;43493;53.098;6.064;2022-12-20T15:36:11;28.63;;;22.17;;
57663;SDS011;43493;53.098;6.064;2022-12-20T15:38:40;25.17;;;20.67;;
57663;SDS011;43493;53.098;6.064;2022-12-20T15:41:07;30.10;;;23.10;;
57663;SDS011;43493;53.098;6.064;2022-12-20T15:43:50;33.23;;;22.40;;
57663;SDS011;43493;53.098;6.064;2022-12-20T15:46:25;28.20;;;23.17;;
57663;SDS011;43493;53.098;6.064;2022-12-20T15:48:51;29.57;;;24.27;;
57663;SDS011;43493;53.098;6.064;2022-12-20T15:51:29;31.20;;;24.20;;
57663;SDS011;43493;53.098;6.064;2022-12-20T15:53:56;29.70;;;25.00;;
57663;SDS011;43493;53.098;6.064;2022-12-20T15:56:24;30.23;;;24.97;;
57663;SDS011;43493;53.098;6.064;2022-12-20T15:58:51;30.17;;;24.17;;
57663;SDS011;43493;53.098;6.064;2022-12-20T16:01:19;33.07;;;24.10;;
57663;SDS011;43493;53.098;6.064;2022-12-20T16:03:48;30.27;;;24.73;;
57663;SDS011;43493;53.098;6.064;2022-12-20T16:06:14;29.40;;;24.00;;
57663;SDS011;43493;53.098;6.064;2022-12-20T16:08:40;30.03;;;23.50;;
57663;SDS011;43493;53.098;6.064;2022-12-20T16:11:09;32.07;;;24.83;;
57663;SDS011;43493;53.098;6.064;2022-12-20T16:13:43;31.33;;;24.63;;
57663;SDS011;43493;53.098;6.064;2022-12-20T16:16:12;32.17;;;25.07;;
57663;SDS011;43493;53.098;6.064;2022-12-20T16:18:44;32.58;;;23.45;;
57663;SDS011;43493;53.098;6.064;2022-12-20T16:21:16;31.60;;;25.77;;
57663;SDS011;43493;53.098;6.064;2022-12-20T16:23:43;34.67;;;26.37;;
57663;SDS011;43493;53.098;6.064;2022-12-20T16:26:13;32.83;;;25.70;;
57663;SDS011;43493;53.098;6.064;2022-12-20T16:28:40;36.37;;;26.67;;
57663;SDS011;43493;53.098;6.064;2022-12-20T16:31:28;38.03;;;27.20;;
57663;SDS011;43493;53.098;6.064;2022-12-20T16:33:55;32.97;;;25.13;;
57663;SDS011;43493;53.098;6.064;2022-12-20T16:36:22;31.73;;;24.80;;
57663;SDS011;43493;53.098;6.064;2022-12-20T16:38:49;33.17;;;24.60;;
57663;SDS011;43493;53.098;6.064;2022-12-20T16:41:16;38.70;;;27.97;;
57663;SDS011;43493;53.098;6.064;2022-12-20T16:43:44;37.20;;;26.80;;
57663;SDS011;43493;53.098;6.064;2022-12-20T16:46:15;34.83;;;25.73;;
57663;SDS011;43493;53.098;6.064;2022-12-20T16:48:43;36.27;;;27.53;;
57663;SDS011;43493;53.098;6.064;2022-12-20T16:51:23;35.73;;;26.63;;
57663;SDS011;43493;53.098;6.064;2022-12-20T16:53:54;36.50;;;27.03;;
57663;SDS011;43493;53.098;6.064;2022-12-20T16:56:25;37.37;;;27.07;;
57663;SDS011;43493;53.098;6.064;2022-12-20T16:58:51;34.23;;;25.83;;
57663;SDS011;43493;53.098;6.064;2022-12-20T17:01:17;35.67;;;25.47;;
57663;SDS011;43493;53.098;6.064;2022-12-20T17:03:47;42.50;;;26.33;;
57663;SDS011;43493;53.098;6.064;2022-12-20T17:06:14;34.93;;;24.10;;
57663;SDS011;43493;53.098;6.064;2022-12-20T17:08:40;35.90;;;24.80;;
57663;SDS011;43493;53.098;6.064;2022-12-20T17:11:26;38.03;;;25.63;;
57663;SDS011;43493;53.098;6.064;2022-12-20T17:13:55;38.77;;;25.27;;
57663;SDS011;43493;53.098;6.064;2022-12-20T17:16:21;36.50;;;23.60;;
57663;SDS011;43493;53.098;6.064;2022-12-20T17:18:48;37.20;;;25.47;;